Time;durP1;ratioP1;P1;durP2;ratioP2;P2;SDS_P1;SDS_P2;PMS_P1;PMS_P2;Temp;Humidity;BMP_temperature;BMP_pressure;BME280_temperature;BME280_humidity;BME280_pressure;Samples;Min_cycle;Max_cycle;Signal;HPM_P1;HPM_P2
2022/03/12 00:01:16;;;;;;;;;;;2.00;32.70;;;;;;5063894;28;19987;-65
2022/03/12 00:03:42;;;;;;;;;;;2.00;32.90;;;;;;5063755;28;19971;-65
2022/03/12 00:06:09;;;;;;;;;;;2.00;33.10;;;;;;5063937;28;19936;-64
2022/03/12 00:08:44;;;;;;;;;;;2.00;33.10;;;;;;5063780;28;19917;-64
2022/03/12 00:11:20;;;;;;;;;;;1.90;33.00;;;;;;5045774;28;19916;-64
2022/03/12 00:13:46;;;;;;;;;;;1.90;33.30;;;;;;5063868;28;19913;-64
2022/03/12 00:16:18;;;;;;;;;;;1.80;33.30;;;;;;5046036;28;19989;-64
2022/03/12 00:18:47;;;;;;;;;;;1.80;33.50;;;;;;5063344;28;19943;-65
2022/03/12 00:21:13;;;;;;;;;;;1.80;33.30;;;;;;5063324;28;20035;-64
2022/03/12 00:23:40;;;;;;;;;;;1.70;33.40;;;;;;5063522;28;19936;-64
2022/03/12 00:26:06;;;;;;;;;;;1.70;33.60;;;;;;5063475;28;19917;-65
2022/03/12 00:28:32;;;;;;;;;;;1.70;33.70;;;;;;5063498;28;19909;-64
2022/03/12 00:30:57;;;;;;;;;;;1.60;33.90;;;;;;5062447;28;20002;-64
2022/03/12 00:33:24;;;;;;;;;;;1.50;33.90;;;;;;5062100;28;19909;-65
2022/03/12 00:35:51;;;;;;;;;;;1.60;34.20;;;;;;5063300;28;19913;-65
2022/03/12 00:38:17;;;;;;;;;;;1.50;34.20;;;;;;5063102;28;19916;-65
2022/03/12 00:40:43;;;;;;;;;;;1.50;34.50;;;;;;5062941;28;19932;-64
2022/03/12 00:43:09;;;;;;;;;;;1.40;34.40;;;;;;5063306;28;19909;-65
2022/03/12 00:45:36;;;;;;;;;;;1.40;34.50;;;;;;5063197;28;19916;-65
2022/03/12 00:48:01;;;;;;;;;;;1.40;34.60;;;;;;5062833;28;19916;-65
2022/03/12 00:50:27;;;;;;;;;;;1.30;34.70;;;;;;5063062;28;19909;-64
2022/03/12 00:52:53;;;;;;;;;;;1.20;35.00;;;;;;5062397;28;19924;-65
2022/03/12 00:55:19;;;;;;;;;;;1.20;35.10;;;;;;5063203;28;19908;-64
2022/03/12 00:57:44;;;;;;;;;;;1.20;35.00;;;;;;5062921;28;20195;-65
2022/03/12 01:00:16;;;;;;;;;;;1.20;35.20;;;;;;5062996;28;19979;-65
2022/03/12 01:02:42;;;;;;;;;;;1.10;35.40;;;;;;5062447;28;19909;-65
2022/03/12 01:05:08;;;;;;;;;;;1.00;36.20;;;;;;5062893;28;19994;-65
2022/03/12 01:07:34;;;;;;;;;;;0.90;36.20;;;;;;5062677;28;19909;-65
2022/03/12 01:10:00;;;;;;;;;;;0.80;36.50;;;;;;5062617;28;19909;-65
2022/03/12 01:12:25;;;;;;;;;;;0.80;36.60;;;;;;5062451;28;20119;-64
2022/03/12 01:14:52;;;;;;;;;;;0.80;36.50;;;;;;5062689;28;19915;-65
2022/03/12 01:17:17;;;;;;;;;;;0.70;36.70;;;;;;5062330;28;19943;-64
2022/03/12 01:19:43;;;;;;;;;;;0.70;36.80;;;;;;5062718;28;19909;-65
2022/03/12 01:22:18;;;;;;;;;;;0.70;36.60;;;;;;5062328;28;19940;-64
2022/03/12 01:24:43;;;;;;;;;;;0.70;36.60;;;;;;5062704;28;19924;-64
2022/03/12 01:27:09;;;;;;;;;;;0.70;36.80;;;;;;5062445;28;19915;-64
2022/03/12 01:29:35;;;;;;;;;;;0.70;36.80;;;;;;5062526;28;19985;-65
2022/03/12 01:32:00;;;;;;;;;;;0.70;36.60;;;;;;5062127;28;19924;-64
2022/03/12 01:34:26;;;;;;;;;;;0.70;36.70;;;;;;5061501;28;19916;-64
2022/03/12 01:36:52;;;;;;;;;;;0.60;36.50;;;;;;5062307;28;20278;-64
2022/03/12 01:39:17;;;;;;;;;;;0.70;36.90;;;;;;5062268;28;19916;-65
2022/03/12 01:41:43;;;;;;;;;;;0.70;36.30;;;;;;5062032;28;19916;-65
2022/03/12 01:44:09;;;;;;;;;;;0.70;36.20;;;;;;5067755;28;20119;-64
2022/03/12 01:46:37;;;;;;;;;;;0.70;36.30;;;;;;5067731;28;19909;-64
2022/03/12 01:49:06;;;;;;;;;;;0.70;36.60;;;;;;5067266;28;19915;-64
2022/03/12 01:51:31;;;;;;;;;;;0.60;36.90;;;;;;5067778;28;19938;-64
2022/03/12 01:53:58;;;;;;;;;;;0.60;36.80;;;;;;5067882;28;19975;-64
2022/03/12 01:56:26;;;;;;;;;;;0.40;37.40;;;;;;5067655;28;20185;-64
2022/03/12 01:58:52;;;;;;;;;;;0.40;37.70;;;;;;5067650;28;19987;-64
2022/03/12 02:01:18;;;;;;;;;;;0.40;37.70;;;;;;5067314;28;19908;-64
2022/03/12 02:03:46;;;;;;;;;;;0.40;37.90;;;;;;5067241;28;19940;-65
2022/03/12 02:06:16;;;;;;;;;;;0.40;37.60;;;;;;5067637;28;20168;-65
2022/03/12 02:08:43;;;;;;;;;;;0.40;37.20;;;;;;5067511;28;19909;-65
2022/03/12 02:11:09;;;;;;;;;;;0.40;38.00;;;;;;5067338;28;19962;-65
2022/03/12 02:13:35;;;;;;;;;;;0.30;38.00;;;;;;5067533;28;20085;-64
2022/03/12 02:16:08;;;;;;;;;;;0.30;38.10;;;;;;5067279;28;20204;-64
2022/03/12 02:18:35;;;;;;;;;;;0.30;38.30;;;;;;5049271;28;19948;-64
2022/03/12 02:21:01;;;;;;;;;;;0.30;38.30;;;;;;5067129;28;20215;-65
2022/03/12 02:23:26;;;;;;;;;;;0.30;38.00;;;;;;5032786;28;19909;-65
2022/03/12 02:25:52;;;;;;;;;;;0.30;38.10;;;;;;5067221;28;20159;-65
2022/03/12 02:28:18;;;;;;;;;;;0.30;38.20;;;;;;5067319;28;19943;-64
2022/03/12 02:30:51;;;;;;;;;;;0.30;38.40;;;;;;5066805;28;20014;-65
2022/03/12 02:33:27;;;;;;;;;;;0.20;38.60;;;;;;5066649;28;20231;-65
2022/03/12 02:35:53;;;;;;;;;;;0.30;38.50;;;;;;5050689;28;19913;-64
2022/03/12 02:38:20;;;;;;;;;;;0.20;38.10;;;;;;5067314;28;19932;-64
2022/03/12 02:40:50;;;;;;;;;;;0.10;38.30;;;;;;5067059;28;20116;-64
2022/03/12 02:43:26;;;;;;;;;;;0.10;38.50;;;;;;5067359;28;19931;-64
2022/03/12 02:45:53;;;;;;;;;;;0.10;38.40;;;;;;5067351;28;19917;-65
2022/03/12 02:48:19;;;;;;;;;;;0.00;38.60;;;;;;5067123;28;19952;-64
2022/03/12 02:50:45;;;;;;;;;;;0.00;38.70;;;;;;5067101;28;19909;-64
2022/03/12 02:53:11;;;;;;;;;;;0.00;38.90;;;;;;5067330;28;19940;-64
2022/03/12 02:55:40;;;;;;;;;;;0.00;38.70;;;;;;5063398;28;19912;-64
2022/03/12 02:58:09;;;;;;;;;;;-0.10;39.30;;;;;;5064142;28;19909;-65
2022/03/12 03:00:37;;;;;;;;;;;0.00;38.70;;;;;;5063841;28;19909;-64
2022/03/12 03:03:04;;;;;;;;;;;0.00;38.50;;;;;;5063497;28;19909;-64
2022/03/12 03:05:41;;;;;;;;;;;0.00;38.50;;;;;;5063859;28;20084;-64
2022/03/12 03:08:09;;;;;;;;;;;0.00;38.70;;;;;;5063859;28;19909;-64
2022/03/12 03:10:37;;;;;;;;;;;0.00;38.70;;;;;;5063510;28;19909;-64
2022/03/12 03:13:21;;;;;;;;;;;0.00;38.60;;;;;;5045946;28;19919;-65
2022/03/12 03:15:57;;;;;;;;;;;0.00;38.70;;;;;;5063487;28;19913;-65
2022/03/12 03:18:24;;;;;;;;;;;0.00;38.80;;;;;;5063133;28;19913;-65
2022/03/12 03:20:51;;;;;;;;;;;0.00;38.30;;;;;;5063288;28;19988;-65
2022/03/12 03:23:17;;;;;;;;;;;0.10;38.50;;;;;;5063561;28;20250;-64
2022/03/12 03:25:43;;;;;;;;;;;0.10;38.50;;;;;;5063427;28;20000;-65
2022/03/12 03:28:08;;;;;;;;;;;0.20;39.10;;;;;;5063326;28;20056;-64
2022/03/12 03:30:38;;;;;;;;;;;0.10;39.00;;;;;;5063285;28;19923;-64
2022/03/12 03:33:15;;;;;;;;;;;0.00;40.10;;;;;;5062085;28;19975;-63
2022/03/12 03:35:40;;;;;;;;;;;0.00;39.70;;;;;;5062862;28;19979;-64
2022/03/12 03:38:07;;;;;;;;;;;-0.10;39.90;;;;;;5062925;28;19913;-64
2022/03/12 03:40:33;;;;;;;;;;;0.00;39.50;;;;;;5062846;28;19979;-64
2022/03/12 03:42:58;;;;;;;;;;;0.00;39.30;;;;;;5062945;28;19924;-64
2022/03/12 03:45:27;;;;;;;;;;;0.00;39.00;;;;;;5063048;28;19992;-64
2022/03/12 03:47:54;;;;;;;;;;;0.00;39.20;;;;;;5062811;28;19909;-64
2022/03/12 03:50:25;;;;;;;;;;;0.00;39.60;;;;;;5062692;28;20009;-64
2022/03/12 03:52:55;;;;;;;;;;;0.00;40.10;;;;;;5062758;28;19913;-64
2022/03/12 03:55:20;;;;;;;;;;;0.00;40.00;;;;;;5062975;28;19908;-64
2022/03/12 03:57:46;;;;;;;;;;;0.00;39.50;;;;;;5062763;28;20227;-64
2022/03/12 04:00:12;;;;;;;;;;;-0.10;40.20;;;;;;5062743;28;19963;-64
2022/03/12 04:02:38;;;;;;;;;;;0.00;40.20;;;;;;5062488;28;19909;-64
2022/03/12 04:05:04;;;;;;;;;;;0.00;40.30;;;;;;5062364;28;19916;-63
2022/03/12 04:07:30;;;;;;;;;;;0.00;40.30;;;;;;5062288;28;19909;-63
2022/03/12 04:09:56;;;;;;;;;;;0.00;39.80;;;;;;5061238;28;19920;-63
2022/03/12 04:12:23;;;;;;;;;;;0.10;39.40;;;;;;5061584;28;19963;-64
2022/03/12 04:14:48;;;;;;;;;;;0.10;39.30;;;;;;5062067;28;19920;-64
2022/03/12 04:17:18;;;;;;;;;;;0.10;39.10;;;;;;5062434;28;19921;-63
2022/03/12 04:19:44;;;;;;;;;;;0.20;38.90;;;;;;5062048;28;19915;-64
2022/03/12 04:22:09;;;;;;;;;;;0.10;39.20;;;;;;5062024;28;19948;-64
2022/03/12 04:24:35;;;;;;;;;;;0.10;39.80;;;;;;5062300;28;20237;-63
2022/03/12 04:27:02;;;;;;;;;;;0.00;39.70;;;;;;5062175;28;19927;-64
2022/03/12 04:29:28;;;;;;;;;;;0.00;39.80;;;;;;5062772;28;19909;-64
2022/03/12 04:31:53;;;;;;;;;;;-0.10;40.10;;;;;;5062129;28;20258;-63
2022/03/12 04:34:21;;;;;;;;;;;-0.10;40.00;;;;;;5061367;28;19988;-64
2022/03/12 04:36:47;;;;;;;;;;;-0.10;40.20;;;;;;5062083;28;19912;-64
2022/03/12 04:39:12;;;;;;;;;;;-0.10;40.50;;;;;;5062087;28;19920;-64
2022/03/12 04:41:39;;;;;;;;;;;-0.20;40.40;;;;;;5061870;28;19916;-64
2022/03/12 04:44:08;;;;;;;;;;;-0.20;40.90;;;;;;5062028;28;19924;-64
2022/03/12 04:46:34;;;;;;;;;;;-0.30;41.20;;;;;;5062074;28;19921;-64
2022/03/12 04:49:00;;;;;;;;;;;-0.30;40.90;;;;;;5061776;28;19971;-64
2022/03/12 04:51:28;;;;;;;;;;;-0.30;41.20;;;;;;5061440;28;19928;-64
2022/03/12 04:54:00;;;;;;;;;;;-0.30;41.10;;;;;;5061860;28;19917;-63
2022/03/12 04:56:25;;;;;;;;;;;-0.30;41.10;;;;;;5061725;28;20123;-64
2022/03/12 04:58:53;;;;;;;;;;;-0.40;41.20;;;;;;5061665;28;19916;-64
2022/03/12 05:01:20;;;;;;;;;;;-0.40;41.00;;;;;;5061512;28;19916;-64
2022/03/12 05:03:46;;;;;;;;;;;-0.30;40.80;;;;;;5061423;28;19909;-64
2022/03/12 05:06:13;;;;;;;;;;;-0.30;40.70;;;;;;5061539;28;20229;-64
2022/03/12 05:08:39;;;;;;;;;;;-0.30;40.80;;;;;;5061599;28;19984;-64
2022/03/12 05:11:04;;;;;;;;;;;-0.30;40.80;;;;;;5061294;28;19924;-63
2022/03/12 05:13:30;;;;;;;;;;;-0.30;41.00;;;;;;5060520;28;20143;-64
2022/03/12 05:15:58;;;;;;;;;;;-0.30;40.80;;;;;;5061378;28;19938;-63
2022/03/12 05:18:26;;;;;;;;;;;-0.40;40.90;;;;;;5061068;28;19916;-64
2022/03/12 05:20:52;;;;;;;;;;;-0.40;41.40;;;;;;5061088;28;20069;-64
2022/03/12 05:23:18;;;;;;;;;;;-0.40;41.50;;;;;;5061478;28;19923;-64
2022/03/12 05:25:44;;;;;;;;;;;-0.50;41.50;;;;;;5061538;28;19915;-64
2022/03/12 05:28:26;;;;;;;;;;;-0.50;41.90;;;;;;5061896;28;19913;-64
2022/03/12 05:30:57;;;;;;;;;;;-0.50;42.00;;;;;;5061099;28;19915;-64
2022/03/12 05:33:23;;;;;;;;;;;-0.50;41.90;;;;;;5060240;28;19916;-64
2022/03/12 05:35:53;;;;;;;;;;;-0.50;42.20;;;;;;5043110;28;19920;-64
2022/03/12 05:38:19;;;;;;;;;;;-0.60;42.40;;;;;;5060979;28;19924;-64
2022/03/12 05:40:45;;;;;;;;;;;-0.40;41.60;;;;;;5060881;28;19909;-64
2022/03/12 05:43:15;;;;;;;;;;;-0.40;41.20;;;;;;5061069;28;20142;-64
2022/03/12 05:45:45;;;;;;;;;;;-0.40;41.20;;;;;;5061151;28;19909;-64
2022/03/12 05:48:11;;;;;;;;;;;-0.20;40.80;;;;;;5060749;28;19908;-64
2022/03/12 05:50:37;;;;;;;;;;;-0.20;40.60;;;;;;5060755;28;19916;-64
2022/03/12 05:53:04;;;;;;;;;;;-0.20;40.70;;;;;;5061088;28;19975;-64
2022/03/12 05:55:30;;;;;;;;;;;-0.20;41.20;;;;;;5060898;28;20226;-64
2022/03/12 05:57:57;;;;;;;;;;;-0.20;40.70;;;;;;5060509;28;19909;-64
2022/03/12 06:00:22;;;;;;;;;;;-0.10;41.10;;;;;;5060784;28;19909;-64
2022/03/12 06:02:51;;;;;;;;;;;-0.10;41.50;;;;;;5060774;28;19970;-63
2022/03/12 06:05:18;;;;;;;;;;;-0.10;41.70;;;;;;5060651;28;19950;-64
2022/03/12 06:07:45;;;;;;;;;;;0.00;41.50;;;;;;5060664;28;19919;-64
2022/03/12 06:10:14;;;;;;;;;;;0.10;41.10;;;;;;5060754;28;19916;-64
2022/03/12 06:12:43;;;;;;;;;;;0.20;40.80;;;;;;5060549;28;19909;-64
2022/03/12 06:15:10;;;;;;;;;;;0.30;40.10;;;;;;5060684;28;19925;-64
2022/03/12 06:17:36;;;;;;;;;;;0.40;39.50;;;;;;5060588;28;19960;-63
2022/03/12 06:20:02;;;;;;;;;;;0.50;39.50;;;;;;5060258;28;19931;-64
2022/03/12 06:22:28;;;;;;;;;;;0.50;39.50;;;;;;5060276;28;19979;-63
2022/03/12 06:24:53;;;;;;;;;;;0.50;39.50;;;;;;5060694;28;19938;-64
2022/03/12 06:27:20;;;;;;;;;;;0.60;39.50;;;;;;5060818;28;19952;-64
2022/03/12 06:29:47;;;;;;;;;;;0.60;39.60;;;;;;5061009;28;20318;-64
2022/03/12 06:32:14;;;;;;;;;;;0.70;39.40;;;;;;5064086;28;20107;-64
2022/03/12 06:34:41;;;;;;;;;;;0.80;38.90;;;;;;5063850;28;19929;-64
2022/03/12 06:37:08;;;;;;;;;;;0.90;38.90;;;;;;5063750;28;19912;-64
2022/03/12 06:39:34;;;;;;;;;;;1.00;39.00;;;;;;5064172;28;20005;-64
2022/03/12 06:42:02;;;;;;;;;;;1.00;38.70;;;;;;5063563;28;20219;-64
2022/03/12 06:44:32;;;;;;;;;;;1.10;38.80;;;;;;5063443;28;20211;-64
2022/03/12 06:47:01;;;;;;;;;;;1.20;38.70;;;;;;5062971;28;20226;-64
2022/03/12 06:49:27;;;;;;;;;;;1.30;38.20;;;;;;5063754;28;19924;-64
2022/03/12 06:51:53;;;;;;;;;;;1.40;37.30;;;;;;5063687;28;19955;-64
2022/03/12 06:54:19;;;;;;;;;;;1.40;37.40;;;;;;5063855;28;19917;-63
2022/03/12 06:56:45;;;;;;;;;;;1.40;36.90;;;;;;5063545;28;19913;-64
2022/03/12 06:59:12;;;;;;;;;;;1.30;36.70;;;;;;5045836;28;19943;-63
2022/03/12 07:01:38;;;;;;;;;;;1.30;37.30;;;;;;5062976;28;19938;-63
2022/03/12 07:04:03;;;;;;;;;;;1.30;37.60;;;;;;5063098;28;19916;-65
2022/03/12 07:06:29;;;;;;;;;;;1.30;37.80;;;;;;5063598;28;20227;-65
2022/03/12 07:08:55;;;;;;;;;;;1.30;37.80;;;;;;5063831;28;19920;-65
2022/03/12 07:11:21;;;;;;;;;;;1.40;36.80;;;;;;5063231;28;19966;-65
2022/03/12 07:13:47;;;;;;;;;;;1.50;36.50;;;;;;5063863;28;19909;-65
2022/03/12 07:16:12;;;;;;;;;;;1.50;36.50;;;;;;5063219;28;19962;-65
2022/03/12 07:18:38;;;;;;;;;;;1.50;36.50;;;;;;5045562;28;20138;-65
2022/03/12 07:21:06;;;;;;;;;;;1.50;36.60;;;;;;5063166;28;19928;-65
2022/03/12 07:23:31;;;;;;;;;;;1.60;37.00;;;;;;5063563;28;20220;-65
2022/03/12 07:25:57;;;;;;;;;;;1.60;36.40;;;;;;5063381;28;19939;-65
2022/03/12 07:28:23;;;;;;;;;;;1.60;36.50;;;;;;5063420;28;20294;-65
2022/03/12 07:30:48;;;;;;;;;;;1.60;37.10;;;;;;5062950;28;20223;-65
2022/03/12 07:33:14;;;;;;;;;;;1.50;36.90;;;;;;5044626;28;19994;-65
2022/03/12 07:35:40;;;;;;;;;;;1.60;36.80;;;;;;5062795;28;19991;-65
2022/03/12 07:38:06;;;;;;;;;;;1.60;37.00;;;;;;5081686;28;19928;-65
2022/03/12 07:40:33;;;;;;;;;;;1.80;36.90;;;;;;5082651;28;19908;-65
2022/03/12 07:42:59;;;;;;;;;;;1.80;36.60;;;;;;5083127;28;20016;-65
2022/03/12 07:45:24;;;;;;;;;;;1.80;36.60;;;;;;5083141;28;20011;-65
2022/03/12 07:47:52;;;;;;;;;;;1.90;36.90;;;;;;5082966;28;19909;-64
2022/03/12 07:50:18;;;;;;;;;;;1.90;36.30;;;;;;5082616;28;20102;-64
2022/03/12 07:52:43;;;;;;;;;;;2.00;36.80;;;;;;5082611;28;19909;-64
2022/03/12 07:55:09;;;;;;;;;;;2.00;36.30;;;;;;5082989;28;19916;-64
2022/03/12 07:57:35;;;;;;;;;;;2.10;35.60;;;;;;5082716;28;19913;-65
2022/03/12 08:00:03;;;;;;;;;;;2.10;36.30;;;;;;5082735;28;19909;-64
2022/03/12 08:02:29;;;;;;;;;;;2.20;35.80;;;;;;5082427;28;19935;-64
2022/03/12 08:04:54;;;;;;;;;;;2.40;34.80;;;;;;5067007;28;19929;-65
2022/03/12 08:07:20;;;;;;;;;;;2.40;34.80;;;;;;5062830;28;19909;-64
2022/03/12 08:09:46;;;;;;;;;;;2.50;34.50;;;;;;5062662;28;20298;-64
2022/03/12 08:12:15;;;;;;;;;;;2.60;33.90;;;;;;5062252;28;19909;-64
2022/03/12 08:14:43;;;;;;;;;;;2.60;33.30;;;;;;5062018;28;19908;-64
2022/03/12 08:17:08;;;;;;;;;;;2.70;33.40;;;;;;5058819;28;19935;-65
2022/03/12 08:19:37;;;;;;;;;;;2.70;33.10;;;;;;5061540;28;20131;-65
2022/03/12 08:22:04;;;;;;;;;;;2.70;33.50;;;;;;5062053;28;19916;-65
2022/03/12 08:24:30;;;;;;;;;;;2.80;33.00;;;;;;5056304;28;20189;-65
2022/03/12 08:26:55;;;;;;;;;;;2.90;32.50;;;;;;5061696;28;19909;-65
2022/03/12 08:29:21;;;;;;;;;;;3.00;32.50;;;;;;5062066;28;19979;-66
2022/03/12 08:31:47;;;;;;;;;;;3.10;32.20;;;;;;5061612;28;19919;-66
2022/03/12 08:34:14;;;;;;;;;;;3.10;32.60;;;;;;5060967;28;19988;-66
2022/03/12 08:36:41;;;;;;;;;;;3.30;32.20;;;;;;5061816;28;19920;-66
2022/03/12 08:39:07;;;;;;;;;;;3.30;32.20;;;;;;5061864;28;20018;-66
2022/03/12 08:41:34;;;;;;;;;;;3.50;32.50;;;;;;5061335;28;19975;-66
2022/03/12 08:44:00;;;;;;;;;;;3.50;32.00;;;;;;5061991;28;19908;-66
2022/03/12 08:46:26;;;;;;;;;;;3.70;31.40;;;;;;5061785;28;19909;-66
2022/03/12 08:48:52;;;;;;;;;;;3.80;30.80;;;;;;5061462;28;19975;-65
2022/03/12 08:51:19;;;;;;;;;;;3.70;31.50;;;;;;5061509;28;20164;-66
2022/03/12 08:53:45;;;;;;;;;;;3.80;31.60;;;;;;5061064;28;19944;-66
2022/03/12 08:56:11;;;;;;;;;;;3.90;31.40;;;;;;5061318;28;20128;-65
2022/03/12 08:58:37;;;;;;;;;;;4.10;31.20;;;;;;5061413;28;19915;-65
2022/03/12 09:01:05;;;;;;;;;;;4.20;31.10;;;;;;5060883;28;19909;-65
2022/03/12 09:03:31;;;;;;;;;;;4.20;31.10;;;;;;5058927;28;19979;-65
2022/03/12 09:05:56;;;;;;;;;;;4.30;30.80;;;;;;5061148;28;19908;-65
2022/03/12 09:08:22;;;;;;;;;;;4.40;30.50;;;;;;5061042;28;19912;-69
2022/03/12 09:10:48;;;;;;;;;;;4.50;30.40;;;;;;5060746;28;19962;-65
2022/03/12 09:13:15;;;;;;;;;;;4.70;30.60;;;;;;5058652;28;19921;-66
2022/03/12 09:15:41;;;;;;;;;;;4.80;30.30;;;;;;5060963;28;19916;-66
2022/03/12 09:18:07;;;;;;;;;;;4.80;30.00;;;;;;5060899;28;20108;-66
2022/03/12 09:20:41;;;;;;;;;;;4.90;29.30;;;;;;5058330;28;19927;-66
2022/03/12 09:23:07;;;;;;;;;;;4.90;29.60;;;;;;5058919;28;20208;-65
2022/03/12 09:25:32;;;;;;;;;;;5.00;29.20;;;;;;5061263;28;19912;-66
2022/03/12 09:27:59;;;;;;;;;;;5.00;29.70;;;;;;5060894;28;19912;-65
2022/03/12 09:30:25;;;;;;;;;;;5.10;30.00;;;;;;5061043;28;19996;-65
2022/03/12 09:32:50;;;;;;;;;;;5.20;29.60;;;;;;5061059;28;20016;-66
2022/03/12 09:35:16;;;;;;;;;;;5.30;29.40;;;;;;5055707;28;20093;-67
2022/03/12 09:37:42;;;;;;;;;;;5.30;29.20;;;;;;5060553;28;19983;-68
2022/03/12 09:40:08;;;;;;;;;;;5.30;29.60;;;;;;5061118;28;19908;-67
2022/03/12 09:42:34;;;;;;;;;;;5.40;29.40;;;;;;5060682;28;20234;-65
2022/03/12 09:45:00;;;;;;;;;;;5.50;29.60;;;;;;5061075;28;19972;-68
2022/03/12 09:47:26;;;;;;;;;;;5.50;29.40;;;;;;5060734;28;20031;-67
2022/03/12 09:49:52;;;;;;;;;;;5.60;29.60;;;;;;5060535;28;19980;-68
2022/03/12 09:52:17;;;;;;;;;;;5.70;29.60;;;;;;5051073;28;19912;-67
2022/03/12 09:54:44;;;;;;;;;;;5.70;29.30;;;;;;5060871;28;19909;-67
2022/03/12 09:57:10;;;;;;;;;;;5.80;29.00;;;;;;5060872;28;19912;-66
2022/03/12 09:59:35;;;;;;;;;;;5.80;28.80;;;;;;5060620;28;19915;-68
2022/03/12 10:02:01;;;;;;;;;;;5.90;29.70;;;;;;5060365;28;19912;-67
2022/03/12 10:04:28;;;;;;;;;;;5.90;30.70;;;;;;5062666;28;20235;-65
2022/03/12 10:06:55;;;;;;;;;;;6.00;30.90;;;;;;5062210;28;19924;-67
2022/03/12 10:09:22;;;;;;;;;;;6.30;29.30;;;;;;5064559;28;19932;-67
2022/03/12 10:11:50;;;;;;;;;;;6.40;29.40;;;;;;5063953;28;19908;-67
2022/03/12 10:14:16;;;;;;;;;;;6.60;28.90;;;;;;5064373;28;19915;-68
2022/03/12 10:16:42;;;;;;;;;;;6.60;30.50;;;;;;5064064;28;19932;-67
2022/03/12 10:19:07;;;;;;;;;;;6.80;29.50;;;;;;5054197;28;19944;-66
2022/03/12 10:21:35;;;;;;;;;;;7.00;29.40;;;;;;5063927;28;19909;-68
2022/03/12 10:24:02;;;;;;;;;;;7.10;28.70;;;;;;5045447;28;19966;-67
2022/03/12 10:26:28;;;;;;;;;;;7.20;28.20;;;;;;5063692;28;19908;-67
2022/03/12 10:28:53;;;;;;;;;;;7.30;28.60;;;;;;5063131;28;20357;-66
2022/03/12 10:31:19;;;;;;;;;;;7.40;27.80;;;;;;5063884;28;19924;-68
2022/03/12 10:33:45;;;;;;;;;;;7.40;28.30;;;;;;5063336;28;19961;-66
2022/03/12 10:36:13;;;;;;;;;;;7.50;28.20;;;;;;5062844;28;19928;-66
2022/03/12 10:38:46;;;;;;;;;;;7.60;28.20;;;;;;5046328;28;19947;-71
2022/03/12 10:41:12;;;;;;;;;;;7.90;28.10;;;;;;5045559;28;19959;-72
2022/03/12 10:43:49;;;;;;;;;;;8.00;28.00;;;;;;5045931;28;20207;-71
2022/03/12 10:46:22;;;;;;;;;;;8.20;27.80;;;;;;5045817;28;19920;-66
2022/03/12 10:48:54;;;;;;;;;;;8.40;27.40;;;;;;5046491;28;20107;-70
2022/03/12 10:51:19;;;;;;;;;;;8.50;27.10;;;;;;5063694;28;19921;-67
2022/03/12 10:53:45;;;;;;;;;;;8.40;27.10;;;;;;5062513;28;20084;-67
2022/03/12 10:56:11;;;;;;;;;;;8.60;27.80;;;;;;5061825;28;20154;-68
2022/03/12 10:58:37;;;;;;;;;;;8.70;27.20;;;;;;5063520;28;21026;-66
2022/03/12 11:01:03;;;;;;;;;;;8.80;27.30;;;;;;5062603;28;19936;-68
2022/03/12 11:03:30;;;;;;;;;;;9.10;27.60;;;;;;5063553;28;20000;-65
2022/03/12 11:05:56;;;;;;;;;;;9.20;26.70;;;;;;5062351;28;19920;-68
2022/03/12 11:08:28;;;;;;;;;;;9.40;26.70;;;;;;5063082;28;19921;-69
2022/03/12 11:11:06;;;;;;;;;;;9.60;26.90;;;;;;5063139;28;19916;-68
2022/03/12 11:13:50;;;;;;;;;;;9.80;26.50;;;;;;5062669;28;19954;-69
2022/03/12 11:16:30;;;;;;;;;;;10.20;26.90;;;;;;5059882;28;20222;-68
2022/03/12 11:19:01;;;;;;;;;;;10.50;26.40;;;;;;5044978;28;20114;-67
2022/03/12 11:21:33;;;;;;;;;;;11.00;26.70;;;;;;5055513;28;19917;-70
2022/03/12 11:23:59;;;;;;;;;;;11.20;25.70;;;;;;5063129;28;19909;-68
2022/03/12 11:26:26;;;;;;;;;;;11.70;25.30;;;;;;5062884;28;19955;-71
2022/03/12 11:28:57;;;;;;;;;;;12.10;25.30;;;;;;5062880;28;19930;-69
2022/03/12 11:31:41;;;;;;;;;;;12.60;24.70;;;;;;5062924;28;20087;-70
2022/03/12 11:34:20;;;;;;;;;;;12.60;24.20;;;;;;5062216;28;19909;-68
2022/03/12 11:36:51;;;;;;;;;;;13.20;25.10;;;;;;5061114;28;19936;-68
2022/03/12 11:39:19;;;;;;;;;;;14.10;23.70;;;;;;5044539;28;20108;-69
2022/03/12 11:42:00;;;;;;;;;;;15.50;22.90;;;;;;5045016;28;19984;-71
2022/03/12 11:44:26;;;;;;;;;;;16.50;22.10;;;;;;5050519;28;19931;-71
2022/03/12 11:46:51;;;;;;;;;;;18.00;21.80;;;;;;5062326;28;20131;-69
2022/03/12 11:49:17;;;;;;;;;;;19.50;21.00;;;;;;5062487;28;19916;-71
2022/03/12 11:51:44;;;;;;;;;;;20.70;19.90;;;;;;5062688;28;19970;-71
2022/03/12 11:54:09;;;;;;;;;;;22.20;19.20;;;;;;5062311;28;19928;-68
2022/03/12 11:56:37;;;;;;;;;;;22.80;18.80;;;;;;5062626;28;19913;-71
2022/03/12 11:59:03;;;;;;;;;;;24.50;18.20;;;;;;5062100;28;19932;-73
2022/03/12 12:01:30;;;;;;;;;;;24.00;18.80;;;;;;5041940;28;19925;-69
2022/03/12 12:03:56;;;;;;;;;;;24.80;17.90;;;;;;5062017;28;20187;-67
2022/03/12 12:06:22;;;;;;;;;;;24.20;18.00;;;;;;5060446;28;19909;-75
2022/03/12 12:08:48;;;;;;;;;;;24.90;17.80;;;;;;5061934;28;19924;-69
2022/03/12 12:11:15;;;;;;;;;;;25.40;17.60;;;;;;5062493;28;19970;-69
2022/03/12 12:13:44;;;;;;;;;;;26.20;17.60;;;;;;5062465;28;19944;-69
2022/03/12 12:16:11;;;;;;;;;;;26.70;17.30;;;;;;5061940;28;19937;-70
2022/03/12 12:18:37;;;;;;;;;;;27.00;17.50;;;;;;5062434;28;19913;-69
2022/03/12 12:21:03;;;;;;;;;;;27.30;17.40;;;;;;5077246;28;19984;-68
2022/03/12 12:23:29;;;;;;;;;;;27.50;17.60;;;;;;5063083;28;19932;-71
2022/03/12 12:26:08;;;;;;;;;;;28.40;17.30;;;;;;5059453;28;19916;-69
2022/03/12 12:28:45;;;;;;;;;;;29.30;17.10;;;;;;5061743;28;19931;-68
2022/03/12 12:31:24;;;;;;;;;;;30.40;16.80;;;;;;5061914;28;19909;-67
2022/03/12 12:33:50;;;;;;;;;;;30.70;16.50;;;;;;5061882;28;19913;-66
2022/03/12 12:36:17;;;;;;;;;;;31.50;16.40;;;;;;5059663;28;20243;-67
2022/03/12 12:39:12;;;;;;;;;;;31.30;16.50;;;;;;5061631;28;19919;-69
2022/03/12 12:41:54;;;;;;;;;;;31.60;16.30;;;;;;5041655;28;19966;-68
2022/03/12 12:44:50;;;;;;;;;;;31.10;16.50;;;;;;5041874;28;19939;-66
2022/03/12 12:47:20;;;;;;;;;;;31.20;16.80;;;;;;5037911;28;20252;-67
2022/03/12 12:49:56;;;;;;;;;;;31.80;16.50;;;;;;5061267;28;19908;-68
2022/03/12 12:52:22;;;;;;;;;;;32.30;16.30;;;;;;5061081;28;19921;-68
2022/03/12 12:54:57;;;;;;;;;;;31.90;16.30;;;;;;5061725;28;20167;-68
2022/03/12 12:57:42;;;;;;;;;;;32.50;16.50;;;;;;5061281;28;20230;-68
2022/03/12 13:00:27;;;;;;;;;;;32.90;16.40;;;;;;5061151;28;20227;-67
2022/03/12 13:02:52;;;;;;;;;;;32.10;16.40;;;;;;5041432;28;19913;-68
2022/03/12 13:05:18;;;;;;;;;;;32.20;16.70;;;;;;5060663;28;20124;-68
2022/03/12 13:08:00;;;;;;;;;;;32.80;16.50;;;;;;5043561;28;19916;-68
2022/03/12 13:10:26;;;;;;;;;;;33.40;16.40;;;;;;5061157;28;20178;-68
2022/03/12 13:13:10;;;;;;;;;;;34.40;16.20;;;;;;5060286;28;20215;-68
2022/03/12 13:15:37;;;;;;;;;;;33.20;16.20;;;;;;5029219;28;20092;-68
2022/03/12 13:18:25;;;;;;;;;;;34.30;16.20;;;;;;5060706;28;20130;-67
2022/03/12 13:20:52;;;;;;;;;;;34.80;16.20;;;;;;5048542;28;20088;-68
2022/03/12 13:23:32;;;;;;;;;;;33.40;16.00;;;;;;5043311;28;19974;-68
2022/03/12 13:25:58;;;;;;;;;;;33.90;16.10;;;;;;5044926;28;19955;-67
2022/03/12 13:28:44;;;;;;;;;;;32.70;16.50;;;;;;5061187;28;19924;-68
2022/03/12 13:31:29;;;;;;;;;;;32.30;16.30;;;;;;5060661;28;19920;-68
2022/03/12 13:34:15;;;;;;;;;;;31.80;16.50;;;;;;5041677;28;19917;-68
2022/03/12 13:36:43;;;;;;;;;;;32.30;16.30;;;;;;5060482;28;19913;-68
2022/03/12 13:39:10;;;;;;;;;;;33.80;16.00;;;;;;5060261;28;19984;-67
2022/03/12 13:41:37;;;;;;;;;;;33.50;16.00;;;;;;5060928;28;20108;-68
2022/03/12 13:44:02;;;;;;;;;;;33.80;16.00;;;;;;5061118;28;20001;-67
2022/03/12 13:46:29;;;;;;;;;;;33.20;16.30;;;;;;5043266;28;20088;-67
2022/03/12 13:49:05;;;;;;;;;;;33.30;16.80;;;;;;5060793;28;20220;-68
2022/03/12 13:51:33;;;;;;;;;;;33.10;16.40;;;;;;5056772;28;19925;-68
2022/03/12 13:54:00;;;;;;;;;;;33.50;16.30;;;;;;5058435;28;19970;-66
2022/03/12 13:56:27;;;;;;;;;;;34.00;15.90;;;;;;5060101;28;19924;-67
2022/03/12 13:58:53;;;;;;;;;;;33.90;16.10;;;;;;5060570;28;19951;-66
2022/03/12 14:01:49;;;;;;;;;;;33.10;16.30;;;;;;5060287;28;20014;-67
2022/03/12 14:04:17;;;;;;;;;;;34.20;16.00;;;;;;5054828;28;19921;-67
2022/03/12 14:06:44;;;;;;;;;;;33.20;16.30;;;;;;5060259;28;20207;-67
2022/03/12 14:09:11;;;;;;;;;;;32.50;16.30;;;;;;5060894;28;19920;-67
2022/03/12 14:11:41;;;;;;;;;;;31.90;16.20;;;;;;5043729;28;19916;-67
2022/03/12 14:14:09;;;;;;;;;;;32.60;16.50;;;;;;5043578;28;20373;-67
2022/03/12 14:16:40;;;;;;;;;;;31.70;16.60;;;;;;5061593;28;19924;-67
2022/03/12 14:19:10;;;;;;;;;;;31.60;16.50;;;;;;5061192;28;19980;-67
2022/03/12 14:21:43;;;;;;;;;;;32.00;16.50;;;;;;5027375;28;19909;-67
2022/03/12 14:24:13;;;;;;;;;;;31.90;16.30;;;;;;5061369;28;19917;-67
2022/03/12 14:26:59;;;;;;;;;;;31.10;16.60;;;;;;5061908;28;19955;-67
2022/03/12 14:29:27;;;;;;;;;;;31.10;16.70;;;;;;5061728;28;19909;-67
2022/03/12 14:31:57;;;;;;;;;;;31.90;16.40;;;;;;5060231;28;19955;-67